sensor_id;sensor_type;location;lat;lon;timestamp;P1;durP1;ratioP1;P2;durP2;ratioP2
78589;SDS011;67888;50.228;7.828;2023-06-26T00:02:16;11.87;;;5.70;;
78589;SDS011;67888;50.228;7.828;2023-06-26T00:07:17;12.17;;;6.00;;
78589;SDS011;67888;50.228;7.828;2023-06-26T00:12:17;10.85;;;6.18;;
78589;SDS011;67888;50.228;7.828;2023-06-26T00:17:17;11.13;;;5.77;;
78589;SDS011;67888;50.228;7.828;2023-06-26T00:22:18;10.97;;;5.60;;
78589;SDS011;67888;50.228;7.828;2023-06-26T00:27:18;10.75;;;5.78;;
78589;SDS011;67888;50.228;7.828;2023-06-26T00:32:19;13.93;;;5.93;;
78589;SDS011;67888;50.228;7.828;2023-06-26T00:37:19;12.97;;;5.63;;
78589;SDS011;67888;50.228;7.828;2023-06-26T00:42:19;13.70;;;5.87;;
78589;SDS011;67888;50.228;7.828;2023-06-26T00:47:20;14.83;;;6.17;;
78589;SDS011;67888;50.228;7.828;2023-06-26T00:52:20;13.80;;;5.87;;
78589;SDS011;67888;50.228;7.828;2023-06-26T00:57:20;13.60;;;5.50;;
78589;SDS011;67888;50.228;7.828;2023-06-26T01:02:21;15.63;;;6.73;;
78589;SDS011;67888;50.228;7.828;2023-06-26T01:07:21;15.17;;;6.33;;
78589;SDS011;67888;50.228;7.828;2023-06-26T01:12:23;14.55;;;6.60;;
78589;SDS011;67888;50.228;7.828;2023-06-26T01:17:23;13.67;;;5.97;;
78589;SDS011;67888;50.228;7.828;2023-06-26T01:27:30;14.13;;;6.53;;
78589;SDS011;67888;50.228;7.828;2023-06-26T01:32:32;15.75;;;5.90;;
78589;SDS011;67888;50.228;7.828;2023-06-26T01:37:33;12.97;;;6.03;;
78589;SDS011;67888;50.228;7.828;2023-06-26T01:42:34;13.93;;;5.37;;
78589;SDS011;67888;50.228;7.828;2023-06-26T01:47:34;12.00;;;5.50;;
78589;SDS011;67888;50.228;7.828;2023-06-26T01:52:41;13.20;;;5.87;;
78589;SDS011;67888;50.228;7.828;2023-06-26T01:57:42;13.20;;;6.10;;
78589;SDS011;67888;50.228;7.828;2023-06-26T02:02:42;16.07;;;6.57;;
78589;SDS011;67888;50.228;7.828;2023-06-26T02:07:42;16.20;;;6.23;;
78589;SDS011;67888;50.228;7.828;2023-06-26T02:12:43;14.67;;;6.10;;
78589;SDS011;67888;50.228;7.828;2023-06-26T02:17:44;11.47;;;5.80;;
78589;SDS011;67888;50.228;7.828;2023-06-26T02:22:48;18.58;;;6.40;;
78589;SDS011;67888;50.228;7.828;2023-06-26T02:27:48;13.10;;;5.90;;
78589;SDS011;67888;50.228;7.828;2023-06-26T02:32:48;14.67;;;6.13;;
78589;SDS011;67888;50.228;7.828;2023-06-26T02:37:49;18.23;;;6.50;;
78589;SDS011;67888;50.228;7.828;2023-06-26T02:42:49;18.30;;;6.63;;
78589;SDS011;67888;50.228;7.828;2023-06-26T02:47:50;17.90;;;6.93;;
78589;SDS011;67888;50.228;7.828;2023-06-26T02:52:50;17.07;;;7.27;;
78589;SDS011;67888;50.228;7.828;2023-06-26T02:57:52;16.73;;;6.88;;
78589;SDS011;67888;50.228;7.828;2023-06-26T03:02:53;13.48;;;6.30;;
78589;SDS011;67888;50.228;7.828;2023-06-26T03:07:54;17.23;;;5.90;;
78589;SDS011;67888;50.228;7.828;2023-06-26T03:12:54;12.10;;;6.03;;
78589;SDS011;67888;50.228;7.828;2023-06-26T03:17:55;14.17;;;6.20;;
78589;SDS011;67888;50.228;7.828;2023-06-26T03:22:55;15.03;;;6.73;;
78589;SDS011;67888;50.228;7.828;2023-06-26T03:27:56;15.17;;;6.47;;
78589;SDS011;67888;50.228;7.828;2023-06-26T03:32:56;14.53;;;5.70;;
78589;SDS011;67888;50.228;7.828;2023-06-26T03:37:57;13.23;;;6.45;;
78589;SDS011;67888;50.228;7.828;2023-06-26T03:42:57;16.73;;;6.13;;
78589;SDS011;67888;50.228;7.828;2023-06-26T03:47:58;14.73;;;6.30;;
78589;SDS011;67888;50.228;7.828;2023-06-26T03:52:58;15.00;;;6.53;;
78589;SDS011;67888;50.228;7.828;2023-06-26T03:57:59;13.98;;;5.97;;
78589;SDS011;67888;50.228;7.828;2023-06-26T04:02:59;13.50;;;6.20;;
78589;SDS011;67888;50.228;7.828;2023-06-26T04:08:00;15.60;;;6.33;;
78589;SDS011;67888;50.228;7.828;2023-06-26T04:13:00;15.53;;;6.57;;
78589;SDS011;67888;50.228;7.828;2023-06-26T04:18:01;17.53;;;6.73;;
78589;SDS011;67888;50.228;7.828;2023-06-26T04:23:01;22.20;;;7.23;;
78589;SDS011;67888;50.228;7.828;2023-06-26T04:28:01;22.73;;;6.93;;
78589;SDS011;67888;50.228;7.828;2023-06-26T04:33:02;19.30;;;6.90;;
78589;SDS011;67888;50.228;7.828;2023-06-26T04:38:02;21.83;;;7.40;;
78589;SDS011;67888;50.228;7.828;2023-06-26T04:43:03;17.25;;;7.55;;
78589;SDS011;67888;50.228;7.828;2023-06-26T04:48:04;16.27;;;6.60;;
78589;SDS011;67888;50.228;7.828;2023-06-26T04:53:05;19.40;;;7.43;;
78589;SDS011;67888;50.228;7.828;2023-06-26T04:58:06;19.23;;;7.27;;
78589;SDS011;67888;50.228;7.828;2023-06-26T05:03:06;17.23;;;7.60;;
78589;SDS011;67888;50.228;7.828;2023-06-26T05:08:16;17.63;;;7.77;;
78589;SDS011;67888;50.228;7.828;2023-06-26T05:13:17;12.37;;;7.30;;
78589;SDS011;67888;50.228;7.828;2023-06-26T05:18:19;17.17;;;7.95;;
78589;SDS011;67888;50.228;7.828;2023-06-26T05:23:19;18.10;;;8.00;;
78589;SDS011;67888;50.228;7.828;2023-06-26T05:28:22;17.63;;;7.85;;
78589;SDS011;67888;50.228;7.828;2023-06-26T05:33:25;18.57;;;9.03;;
78589;SDS011;67888;50.228;7.828;2023-06-26T05:38:26;18.25;;;8.93;;
78589;SDS011;67888;50.228;7.828;2023-06-26T05:43:26;16.50;;;9.10;;
78589;SDS011;67888;50.228;7.828;2023-06-26T05:48:27;14.23;;;7.83;;
78589;SDS011;67888;50.228;7.828;2023-06-26T05:53:27;14.47;;;8.27;;
78589;SDS011;67888;50.228;7.828;2023-06-26T05:58:28;13.27;;;7.70;;
78589;SDS011;67888;50.228;7.828;2023-06-26T06:03:28;13.40;;;7.80;;
78589;SDS011;67888;50.228;7.828;2023-06-26T06:08:28;13.70;;;7.47;;
78589;SDS011;67888;50.228;7.828;2023-06-26T06:13:29;12.73;;;8.00;;
78589;SDS011;67888;50.228;7.828;2023-06-26T06:18:29;14.70;;;7.67;;
78589;SDS011;67888;50.228;7.828;2023-06-26T06:23:29;12.73;;;7.43;;
78589;SDS011;67888;50.228;7.828;2023-06-26T06:28:30;14.20;;;7.50;;
78589;SDS011;67888;50.228;7.828;2023-06-26T06:33:30;13.13;;;6.83;;
78589;SDS011;67888;50.228;7.828;2023-06-26T06:38:31;13.50;;;7.70;;
78589;SDS011;67888;50.228;7.828;2023-06-26T06:43:31;12.07;;;7.13;;
78589;SDS011;67888;50.228;7.828;2023-06-26T06:48:32;12.30;;;7.23;;
78589;SDS011;67888;50.228;7.828;2023-06-26T06:53:32;10.33;;;6.30;;
78589;SDS011;67888;50.228;7.828;2023-06-26T06:58:32;10.63;;;6.33;;
78589;SDS011;67888;50.228;7.828;2023-06-26T07:03:34;14.13;;;6.53;;
78589;SDS011;67888;50.228;7.828;2023-06-26T07:08:34;10.87;;;5.43;;
78589;SDS011;67888;50.228;7.828;2023-06-26T07:13:35;9.60;;;5.50;;
78589;SDS011;67888;50.228;7.828;2023-06-26T07:18:37;11.07;;;6.10;;
78589;SDS011;67888;50.228;7.828;2023-06-26T07:23:38;11.77;;;6.30;;
78589;SDS011;67888;50.228;7.828;2023-06-26T07:28:39;11.40;;;6.33;;
78589;SDS011;67888;50.228;7.828;2023-06-26T07:33:39;10.25;;;5.80;;
78589;SDS011;67888;50.228;7.828;2023-06-26T07:38:40;10.50;;;5.87;;
78589;SDS011;67888;50.228;7.828;2023-06-26T07:43:40;10.27;;;6.20;;
78589;SDS011;67888;50.228;7.828;2023-06-26T07:48:41;9.07;;;5.50;;
78589;SDS011;67888;50.228;7.828;2023-06-26T07:53:41;9.50;;;5.30;;
78589;SDS011;67888;50.228;7.828;2023-06-26T07:58:41;9.40;;;4.97;;
78589;SDS011;67888;50.228;7.828;2023-06-26T08:03:42;9.50;;;5.60;;
78589;SDS011;67888;50.228;7.828;2023-06-26T08:08:42;12.48;;;5.30;;
78589;SDS011;67888;50.228;7.828;2023-06-26T08:13:42;10.00;;;5.00;;
78589;SDS011;67888;50.228;7.828;2023-06-26T08:18:43;8.90;;;5.03;;
78589;SDS011;67888;50.228;7.828;2023-06-26T08:23:43;10.00;;;5.70;;
78589;SDS011;67888;50.228;7.828;2023-06-26T08:28:44;10.30;;;5.80;;
78589;SDS011;67888;50.228;7.828;2023-06-26T08:33:44;8.97;;;5.37;;
78589;SDS011;67888;50.228;7.828;2023-06-26T08:38:44;11.23;;;5.90;;
78589;SDS011;67888;50.228;7.828;2023-06-26T08:43:45;10.80;;;6.10;;
78589;SDS011;67888;50.228;7.828;2023-06-26T08:48:48;10.73;;;5.73;;
78589;SDS011;67888;50.228;7.828;2023-06-26T08:53:50;10.30;;;5.50;;
78589;SDS011;67888;50.228;7.828;2023-06-26T08:58:52;12.83;;;6.43;;
78589;SDS011;67888;50.228;7.828;2023-06-26T09:03:52;11.32;;;5.70;;
78589;SDS011;67888;50.228;7.828;2023-06-26T09:08:53;12.47;;;5.97;;
78589;SDS011;67888;50.228;7.828;2023-06-26T09:13:53;9.73;;;5.37;;
78589;SDS011;67888;50.228;7.828;2023-06-26T09:18:55;10.70;;;5.78;;
78589;SDS011;67888;50.228;7.828;2023-06-26T09:23:56;11.80;;;5.87;;
78589;SDS011;67888;50.228;7.828;2023-06-26T09:28:56;10.80;;;5.37;;
78589;SDS011;67888;50.228;7.828;2023-06-26T09:33:58;10.18;;;4.75;;
78589;SDS011;67888;50.228;7.828;2023-06-26T09:39:08;8.48;;;4.57;;
78589;SDS011;67888;50.228;7.828;2023-06-26T09:44:11;10.80;;;5.00;;
78589;SDS011;67888;50.228;7.828;2023-06-26T09:49:13;11.52;;;4.88;;
78589;SDS011;67888;50.228;7.828;2023-06-26T09:54:15;11.27;;;4.73;;
78589;SDS011;67888;50.228;7.828;2023-06-26T09:59:16;11.90;;;4.60;;
78589;SDS011;67888;50.228;7.828;2023-06-26T10:04:16;8.57;;;4.40;;
78589;SDS011;67888;50.228;7.828;2023-06-26T10:09:17;9.97;;;4.63;;
78589;SDS011;67888;50.228;7.828;2023-06-26T10:14:18;9.40;;;5.00;;
78589;SDS011;67888;50.228;7.828;2023-06-26T10:19:19;10.43;;;4.97;;
78589;SDS011;67888;50.228;7.828;2023-06-26T10:24:25;13.20;;;5.28;;
78589;SDS011;67888;50.228;7.828;2023-06-26T10:29:26;10.10;;;4.83;;
78589;SDS011;67888;50.228;7.828;2023-06-26T10:34:27;9.82;;;4.82;;
78589;SDS011;67888;50.228;7.828;2023-06-26T10:39:27;11.27;;;5.23;;
78589;SDS011;67888;50.228;7.828;2023-06-26T10:44:40;9.30;;;4.78;;
78589;SDS011;67888;50.228;7.828;2023-06-26T10:49:40;9.57;;;5.30;;
78589;SDS011;67888;50.228;7.828;2023-06-26T10:54:46;12.27;;;5.35;;
78589;SDS011;67888;50.228;7.828;2023-06-26T10:59:47;12.63;;;6.10;;
78589;SDS011;67888;50.228;7.828;2023-06-26T11:04:49;9.97;;;5.33;;
78589;SDS011;67888;50.228;7.828;2023-06-26T11:09:55;11.40;;;5.45;;
78589;SDS011;67888;50.228;7.828;2023-06-26T11:14:56;12.00;;;5.77;;
78589;SDS011;67888;50.228;7.828;2023-06-26T11:19:56;11.20;;;5.53;;
78589;SDS011;67888;50.228;7.828;2023-06-26T11:24:59;17.17;;;5.28;;
78589;SDS011;67888;50.228;7.828;2023-06-26T11:29:59;10.23;;;5.10;;
78589;SDS011;67888;50.228;7.828;2023-06-26T11:35:00;10.15;;;4.93;;
78589;SDS011;67888;50.228;7.828;2023-06-26T11:40:15;12.53;;;4.80;;
78589;SDS011;67888;50.228;7.828;2023-06-26T11:45:22;9.68;;;5.00;;
78589;SDS011;67888;50.228;7.828;2023-06-26T11:50:22;11.07;;;4.63;;
78589;SDS011;67888;50.228;7.828;2023-06-26T11:55:23;10.90;;;4.25;;
78589;SDS011;67888;50.228;7.828;2023-06-26T12:00:24;10.50;;;4.93;;
78589;SDS011;67888;50.228;7.828;2023-06-26T12:05:24;9.43;;;4.40;;
78589;SDS011;67888;50.228;7.828;2023-06-26T12:10:24;10.45;;;3.95;;
78589;SDS011;67888;50.228;7.828;2023-06-26T12:15:25;8.63;;;4.57;;
78589;SDS011;67888;50.228;7.828;2023-06-26T12:20:26;9.70;;;4.03;;
78589;SDS011;67888;50.228;7.828;2023-06-26T12:25:26;11.27;;;3.88;;
78589;SDS011;67888;50.228;7.828;2023-06-26T12:30:27;7.07;;;3.80;;
78589;SDS011;67888;50.228;7.828;2023-06-26T12:35:27;11.17;;;4.17;;
78589;SDS011;67888;50.228;7.828;2023-06-26T12:40:28;9.90;;;3.73;;
78589;SDS011;67888;50.228;7.828;2023-06-26T12:45:28;12.07;;;4.20;;
78589;SDS011;67888;50.228;7.828;2023-06-26T12:50:43;9.50;;;3.60;;
78589;SDS011;67888;50.228;7.828;2023-06-26T12:55:44;8.43;;;3.50;;
78589;SDS011;67888;50.228;7.828;2023-06-26T13:00:45;8.70;;;3.30;;
78589;SDS011;67888;50.228;7.828;2023-06-26T13:05:45;6.97;;;2.97;;
78589;SDS011;67888;50.228;7.828;2023-06-26T13:10:45;7.90;;;3.00;;
78589;SDS011;67888;50.228;7.828;2023-06-26T13:15:46;9.17;;;3.20;;
78589;SDS011;67888;50.228;7.828;2023-06-26T13:20:47;22.40;;;3.60;;
78589;SDS011;67888;50.228;7.828;2023-06-26T13:25:47;8.30;;;2.80;;
78589;SDS011;67888;50.228;7.828;2023-06-26T13:30:47;11.73;;;2.63;;
78589;SDS011;67888;50.228;7.828;2023-06-26T13:35:48;10.40;;;2.90;;
78589;SDS011;67888;50.228;7.828;2023-06-26T13:40:48;9.30;;;2.70;;
78589;SDS011;67888;50.228;7.828;2023-06-26T13:45:49;11.90;;;3.27;;
78589;SDS011;67888;50.228;7.828;2023-06-26T13:50:49;10.35;;;2.80;;
78589;SDS011;67888;50.228;7.828;2023-06-26T13:55:50;8.13;;;2.70;;
78589;SDS011;67888;50.228;7.828;2023-06-26T14:00:50;9.20;;;2.67;;
78589;SDS011;67888;50.228;7.828;2023-06-26T14:05:50;10.93;;;3.00;;
78589;SDS011;67888;50.228;7.828;2023-06-26T14:10:51;9.80;;;2.50;;
78589;SDS011;67888;50.228;7.828;2023-06-26T14:15:51;7.33;;;2.40;;
78589;SDS011;67888;50.228;7.828;2023-06-26T14:20:54;8.00;;;2.63;;
78589;SDS011;67888;50.228;7.828;2023-06-26T14:25:54;7.33;;;2.63;;
78589;SDS011;67888;50.228;7.828;2023-06-26T14:30:55;8.20;;;2.60;;
78589;SDS011;67888;50.228;7.828;2023-06-26T14:35:55;8.23;;;2.70;;
78589;SDS011;67888;50.228;7.828;2023-06-26T14:40:55;7.90;;;2.60;;
78589;SDS011;67888;50.228;7.828;2023-06-26T14:45:56;11.30;;;2.60;;
78589;SDS011;67888;50.228;7.828;2023-06-26T14:50:56;8.77;;;2.87;;
78589;SDS011;67888;50.228;7.828;2023-06-26T14:55:57;8.67;;;6.77;;
78589;SDS011;67888;50.228;7.828;2023-06-26T15:00:57;15.70;;;8.20;;
78589;SDS011;67888;50.228;7.828;2023-06-26T15:05:57;9.10;;;6.97;;
78589;SDS011;67888;50.228;7.828;2023-06-26T15:10:59;11.17;;;7.20;;
78589;SDS011;67888;50.228;7.828;2023-06-26T15:16:00;12.23;;;6.95;;
78589;SDS011;67888;50.228;7.828;2023-06-26T15:21:00;8.43;;;6.20;;
78589;SDS011;67888;50.228;7.828;2023-06-26T15:26:02;9.13;;;6.45;;
78589;SDS011;67888;50.228;7.828;2023-06-26T15:31:04;8.17;;;5.80;;
78589;SDS011;67888;50.228;7.828;2023-06-26T15:36:05;8.10;;;5.17;;
78589;SDS011;67888;50.228;7.828;2023-06-26T15:41:06;9.10;;;6.07;;
78589;SDS011;67888;50.228;7.828;2023-06-26T15:46:06;11.27;;;6.07;;
78589;SDS011;67888;50.228;7.828;2023-06-26T15:51:06;10.27;;;4.17;;
78589;SDS011;67888;50.228;7.828;2023-06-26T15:56:07;9.03;;;3.40;;
78589;SDS011;67888;50.228;7.828;2023-06-26T16:01:09;16.77;;;7.63;;
78589;SDS011;67888;50.228;7.828;2023-06-26T16:06:10;8.63;;;4.87;;
78589;SDS011;67888;50.228;7.828;2023-06-26T16:11:10;9.68;;;7.18;;
78589;SDS011;67888;50.228;7.828;2023-06-26T16:16:11;9.10;;;8.07;;
78589;SDS011;67888;50.228;7.828;2023-06-26T16:21:12;11.02;;;8.75;;
78589;SDS011;67888;50.228;7.828;2023-06-26T16:26:13;13.33;;;9.50;;
78589;SDS011;67888;50.228;7.828;2023-06-26T16:31:13;11.23;;;10.13;;
78589;SDS011;67888;50.228;7.828;2023-06-26T16:36:14;10.87;;;3.60;;
78589;SDS011;67888;50.228;7.828;2023-06-26T16:41:14;6.73;;;3.33;;
78589;SDS011;67888;50.228;7.828;2023-06-26T16:46:15;8.48;;;5.40;;
78589;SDS011;67888;50.228;7.828;2023-06-26T16:51:16;9.20;;;6.70;;
78589;SDS011;67888;50.228;7.828;2023-06-26T16:56:17;8.53;;;6.80;;
78589;SDS011;67888;50.228;7.828;2023-06-26T17:01:17;10.10;;;4.60;;
78589;SDS011;67888;50.228;7.828;2023-06-26T17:06:18;7.77;;;5.30;;
78589;SDS011;67888;50.228;7.828;2023-06-26T17:11:18;8.50;;;2.43;;
78589;SDS011;67888;50.228;7.828;2023-06-26T17:16:19;8.43;;;4.67;;
78589;SDS011;67888;50.228;7.828;2023-06-26T17:21:19;11.27;;;4.33;;
78589;SDS011;67888;50.228;7.828;2023-06-26T17:26:20;8.02;;;4.50;;
78589;SDS011;67888;50.228;7.828;2023-06-26T17:31:21;7.07;;;2.77;;
78589;SDS011;67888;50.228;7.828;2023-06-26T17:36:21;7.33;;;2.60;;
78589;SDS011;67888;50.228;7.828;2023-06-26T17:41:21;7.57;;;2.30;;
78589;SDS011;67888;50.228;7.828;2023-06-26T17:46:22;8.07;;;2.00;;
78589;SDS011;67888;50.228;7.828;2023-06-26T17:51:22;6.70;;;2.07;;
78589;SDS011;67888;50.228;7.828;2023-06-26T17:56:22;6.20;;;2.30;;
78589;SDS011;67888;50.228;7.828;2023-06-26T18:01:23;5.33;;;1.90;;
78589;SDS011;67888;50.228;7.828;2023-06-26T18:06:23;7.30;;;2.10;;
78589;SDS011;67888;50.228;7.828;2023-06-26T18:11:24;6.97;;;2.23;;
78589;SDS011;67888;50.228;7.828;2023-06-26T18:16:24;7.17;;;2.10;;
78589;SDS011;67888;50.228;7.828;2023-06-26T18:21:25;6.70;;;1.95;;
78589;SDS011;67888;50.228;7.828;2023-06-26T18:26:26;6.10;;;1.90;;
78589;SDS011;67888;50.228;7.828;2023-06-26T18:31:26;10.50;;;2.45;;
78589;SDS011;67888;50.228;7.828;2023-06-26T18:36:27;6.43;;;2.10;;
78589;SDS011;67888;50.228;7.828;2023-06-26T18:41:29;7.90;;;2.13;;
78589;SDS011;67888;50.228;7.828;2023-06-26T18:46:30;6.22;;;2.05;;
78589;SDS011;67888;50.228;7.828;2023-06-26T18:51:31;11.00;;;2.10;;
78589;SDS011;67888;50.228;7.828;2023-06-26T18:56:32;7.35;;;2.20;;
78589;SDS011;67888;50.228;7.828;2023-06-26T19:01:33;8.77;;;2.10;;
78589;SDS011;67888;50.228;7.828;2023-06-26T19:06:34;7.83;;;2.30;;
78589;SDS011;67888;50.228;7.828;2023-06-26T19:11:35;7.60;;;1.97;;
78589;SDS011;67888;50.228;7.828;2023-06-26T19:16:35;7.63;;;2.07;;
78589;SDS011;67888;50.228;7.828;2023-06-26T19:21:35;5.50;;;2.20;;
78589;SDS011;67888;50.228;7.828;2023-06-26T19:26:36;6.13;;;1.97;;
78589;SDS011;67888;50.228;7.828;2023-06-26T19:31:37;6.03;;;2.07;;
78589;SDS011;67888;50.228;7.828;2023-06-26T19:36:37;6.07;;;2.07;;
78589;SDS011;67888;50.228;7.828;2023-06-26T19:41:38;5.60;;;1.80;;
78589;SDS011;67888;50.228;7.828;2023-06-26T19:46:38;7.03;;;2.17;;
78589;SDS011;67888;50.228;7.828;2023-06-26T19:51:38;5.80;;;2.10;;
78589;SDS011;67888;50.228;7.828;2023-06-26T19:56:39;8.00;;;2.37;;
78589;SDS011;67888;50.228;7.828;2023-06-26T20:01:40;5.60;;;2.20;;
78589;SDS011;67888;50.228;7.828;2023-06-26T20:06:40;7.60;;;1.90;;
78589;SDS011;67888;50.228;7.828;2023-06-26T20:11:41;8.13;;;2.22;;
78589;SDS011;67888;50.228;7.828;2023-06-26T20:16:42;6.60;;;2.23;;
78589;SDS011;67888;50.228;7.828;2023-06-26T20:21:42;9.17;;;1.97;;
78589;SDS011;67888;50.228;7.828;2023-06-26T20:26:44;5.53;;;2.15;;
78589;SDS011;67888;50.228;7.828;2023-06-26T20:31:44;10.93;;;2.33;;
78589;SDS011;67888;50.228;7.828;2023-06-26T20:36:45;7.37;;;2.20;;
78589;SDS011;67888;50.228;7.828;2023-06-26T20:41:45;6.85;;;2.20;;
78589;SDS011;67888;50.228;7.828;2023-06-26T20:46:46;8.00;;;2.03;;
78589;SDS011;67888;50.228;7.828;2023-06-26T20:51:55;7.55;;;1.75;;
78589;SDS011;67888;50.228;7.828;2023-06-26T20:56:56;7.87;;;2.10;;
78589;SDS011;67888;50.228;7.828;2023-06-26T21:01:56;5.60;;;1.97;;
78589;SDS011;67888;50.228;7.828;2023-06-26T21:06:57;8.27;;;2.03;;
78589;SDS011;67888;50.228;7.828;2023-06-26T21:11:57;6.67;;;2.00;;
78589;SDS011;67888;50.228;7.828;2023-06-26T21:16:58;7.68;;;2.20;;
78589;SDS011;67888;50.228;7.828;2023-06-26T21:21:58;6.60;;;1.97;;
78589;SDS011;67888;50.228;7.828;2023-06-26T21:26:59;6.77;;;1.90;;
78589;SDS011;67888;50.228;7.828;2023-06-26T21:31:59;9.57;;;2.10;;
78589;SDS011;67888;50.228;7.828;2023-06-26T21:36:59;7.17;;;1.90;;
78589;SDS011;67888;50.228;7.828;2023-06-26T21:42:01;7.35;;;1.90;;
78589;SDS011;67888;50.228;7.828;2023-06-26T21:47:01;4.80;;;1.80;;
78589;SDS011;67888;50.228;7.828;2023-06-26T21:52:02;7.43;;;2.10;;
78589;SDS011;67888;50.228;7.828;2023-06-26T21:57:03;6.53;;;2.10;;
78589;SDS011;67888;50.228;7.828;2023-06-26T22:02:04;6.73;;;2.07;;
78589;SDS011;67888;50.228;7.828;2023-06-26T22:07:05;8.50;;;2.30;;
78589;SDS011;67888;50.228;7.828;2023-06-26T22:12:06;7.63;;;2.00;;
78589;SDS011;67888;50.228;7.828;2023-06-26T22:17:06;6.00;;;2.00;;
78589;SDS011;67888;50.228;7.828;2023-06-26T22:22:07;6.33;;;2.00;;
78589;SDS011;67888;50.228;7.828;2023-06-26T22:27:07;6.87;;;1.90;;
78589;SDS011;67888;50.228;7.828;2023-06-26T22:32:08;9.57;;;2.07;;
78589;SDS011;67888;50.228;7.828;2023-06-26T22:37:08;5.70;;;1.83;;
78589;SDS011;67888;50.228;7.828;2023-06-26T22:42:08;7.03;;;2.30;;
78589;SDS011;67888;50.228;7.828;2023-06-26T22:47:09;9.27;;;2.80;;
78589;SDS011;67888;50.228;7.828;2023-06-26T22:52:09;7.10;;;2.00;;
78589;SDS011;67888;50.228;7.828;2023-06-26T22:57:10;5.90;;;2.13;;
78589;SDS011;67888;50.228;7.828;2023-06-26T23:02:10;5.57;;;2.30;;
78589;SDS011;67888;50.228;7.828;2023-06-26T23:07:11;6.67;;;2.07;;
78589;SDS011;67888;50.228;7.828;2023-06-26T23:12:13;5.75;;;2.20;;
78589;SDS011;67888;50.228;7.828;2023-06-26T23:17:14;7.57;;;2.30;;
78589;SDS011;67888;50.228;7.828;2023-06-26T23:22:15;7.43;;;2.27;;
78589;SDS011;67888;50.228;7.828;2023-06-26T23:27:20;8.73;;;1.92;;
78589;SDS011;67888;50.228;7.828;2023-06-26T23:32:22;7.20;;;2.23;;
78589;SDS011;67888;50.228;7.828;2023-06-26T23:37:22;7.47;;;2.20;;
78589;SDS011;67888;50.228;7.828;2023-06-26T23:42:26;6.60;;;1.97;;
78589;SDS011;67888;50.228;7.828;2023-06-26T23:47:27;5.63;;;2.00;;
78589;SDS011;67888;50.228;7.828;2023-06-26T23:52:27;6.53;;;2.33;;
78589;SDS011;67888;50.228;7.828;2023-06-26T23:57:28;8.23;;;2.40;;
